Canefield Airport

Cloudy
30oC (86oF)

Cloudy


Winds: South south westerly @ 05kts / 09km/h gusting to 19kts / 35km/h

Humidity: 51%

Barometric Pressure: 1015 mb

Accumulated Rainfall for April: 51.4 mm

Updated: 11:00 local time (15:00 UTC)

Douglas-Charles Airport

Cloudy and breezy
27oC (81oF)

Cloudy and breezy


Winds: East south easterly @ 14kts / 26km/h

Humidity: 69%

Barometric Pressure: 1018 mb

Accumulated Rainfall for April: 107.4 mm

Updated: 11:00 local time (15:00 UTC)

Satellite Imagery

Satellite Imagery
Click image for larger view. (Source: National Hurricane Center).

Aviation Routine Report (METAR)

Douglas-Charles: METAR TDPD 211500Z 11014KT 9999 SCT017 27/21 Q1018=
Canefield: METAR TDCF 211500Z 21005G19KT 9999 FEW018 30/18 Q1015=